sensor_id;sensor_type;location;lat;lon;timestamp;pressure;altitude;pressure_sealevel;temperature;humidity
7834;BME280;3962;42.696;23.354;2023-05-25T00:01:51;95141.31;;;16.28;82.36
7834;BME280;3962;42.696;23.354;2023-05-25T00:04:19;95148.81;;;16.18;82.23
7834;BME280;3962;42.696;23.354;2023-05-25T00:06:46;95158.31;;;16.06;82.75
7834;BME280;3962;42.696;23.354;2023-05-25T00:09:14;95156.09;;;15.95;83.04
7834;BME280;3962;42.696;23.354;2023-05-25T00:11:41;95162.56;;;15.86;83.50
7834;BME280;3962;42.696;23.354;2023-05-25T00:14:19;95155.69;;;15.84;83.89
7834;BME280;3962;42.696;23.354;2023-05-25T00:16:46;95153.19;;;15.82;84.20
7834;BME280;3962;42.696;23.354;2023-05-25T00:19:14;95146.63;;;15.85;84.25
7834;BME280;3962;42.696;23.354;2023-05-25T00:21:46;95148.38;;;15.78;84.91
7834;BME280;3962;42.696;23.354;2023-05-25T00:24:14;95154.03;;;15.83;84.81
7834;BME280;3962;42.696;23.354;2023-05-25T00:26:41;95151.53;;;15.81;85.21
7834;BME280;3962;42.696;23.354;2023-05-25T00:29:08;95151.34;;;15.83;85.25
7834;BME280;3962;42.696;23.354;2023-05-25T00:31:36;95151.53;;;15.81;85.58
7834;BME280;3962;42.696;23.354;2023-05-25T00:34:07;95147.00;;;15.82;85.85
7834;BME280;3962;42.696;23.354;2023-05-25T00:36:36;95144.13;;;15.83;86.09
7834;BME280;3962;42.696;23.354;2023-05-25T00:39:03;95146.47;;;15.86;85.92
7834;BME280;3962;42.696;23.354;2023-05-25T00:41:31;95149.56;;;15.75;86.77
7834;BME280;3962;42.696;23.354;2023-05-25T00:43:59;95146.78;;;15.69;87.07
7834;BME280;3962;42.696;23.354;2023-05-25T00:46:26;95149.63;;;15.67;87.16
7834;BME280;3962;42.696;23.354;2023-05-25T00:48:55;95154.81;;;15.69;87.37
7834;BME280;3962;42.696;23.354;2023-05-25T00:51:22;95155.19;;;15.66;87.58
7834;BME280;3962;42.696;23.354;2023-05-25T00:53:50;95159.06;;;15.63;87.46
7834;BME280;3962;42.696;23.354;2023-05-25T00:56:18;95167.59;;;15.67;87.75
7834;BME280;3962;42.696;23.354;2023-05-25T00:58:50;95171.03;;;15.75;87.85
7834;BME280;3962;42.696;23.354;2023-05-25T01:01:20;95170.38;;;15.73;87.52
7834;BME280;3962;42.696;23.354;2023-05-25T01:03:48;95168.72;;;15.72;87.46
7834;BME280;3962;42.696;23.354;2023-05-25T01:06:20;95177.31;;;15.68;87.72
7834;BME280;3962;42.696;23.354;2023-05-25T01:08:50;95175.16;;;15.63;87.56
7834;BME280;3962;42.696;23.354;2023-05-25T01:11:20;95179.19;;;15.59;88.25
7834;BME280;3962;42.696;23.354;2023-05-25T01:13:51;95170.34;;;15.59;88.48
7834;BME280;3962;42.696;23.354;2023-05-25T01:16:19;95174.03;;;15.58;88.54
7834;BME280;3962;42.696;23.354;2023-05-25T01:18:46;95168.47;;;15.59;88.59
7834;BME280;3962;42.696;23.354;2023-05-25T01:21:21;95166.16;;;15.56;88.72
7834;BME280;3962;42.696;23.354;2023-05-25T01:23:57;95161.34;;;15.52;88.81
7834;BME280;3962;42.696;23.354;2023-05-25T01:26:28;95161.34;;;15.52;88.87
7834;BME280;3962;42.696;23.354;2023-05-25T01:28:58;95163.00;;;15.53;88.91
7834;BME280;3962;42.696;23.354;2023-05-25T01:31:27;95152.19;;;15.46;88.66
7834;BME280;3962;42.696;23.354;2023-05-25T01:33:55;95151.34;;;15.46;89.04
7834;BME280;3962;42.696;23.354;2023-05-25T01:36:24;95150.22;;;15.40;89.09
7834;BME280;3962;42.696;23.354;2023-05-25T01:38:52;95150.53;;;15.37;89.54
7834;BME280;3962;42.696;23.354;2023-05-25T01:41:20;95154.56;;;15.41;89.70
7834;BME280;3962;42.696;23.354;2023-05-25T01:43:47;95140.19;;;15.34;89.55
7834;BME280;3962;42.696;23.354;2023-05-25T01:46:21;95136.31;;;15.37;89.78
7834;BME280;3962;42.696;23.354;2023-05-25T01:48:54;95140.56;;;15.31;90.37
7834;BME280;3962;42.696;23.354;2023-05-25T01:51:31;95138.53;;;15.33;90.00
7834;BME280;3962;42.696;23.354;2023-05-25T01:54:07;95139.22;;;15.27;90.45
7834;BME280;3962;42.696;23.354;2023-05-25T01:56:36;95141.06;;;15.27;89.92
7834;BME280;3962;42.696;23.354;2023-05-25T01:59:06;95140.81;;;15.14;90.22
7834;BME280;3962;42.696;23.354;2023-05-25T02:01:34;95142.91;;;15.04;90.52
7834;BME280;3962;42.696;23.354;2023-05-25T02:04:02;95149.34;;;14.95;90.92
7834;BME280;3962;42.696;23.354;2023-05-25T02:06:31;95156.75;;;14.85;92.02
7834;BME280;3962;42.696;23.354;2023-05-25T02:08:57;95150.44;;;14.70;92.13
7834;BME280;3962;42.696;23.354;2023-05-25T02:11:24;95150.31;;;14.64;92.42
7834;BME280;3962;42.696;23.354;2023-05-25T02:13:52;95156.88;;;14.61;92.81
7834;BME280;3962;42.696;23.354;2023-05-25T02:16:21;95155.56;;;14.57;92.93
7834;BME280;3962;42.696;23.354;2023-05-25T02:18:54;95148.53;;;14.56;92.88
7834;BME280;3962;42.696;23.354;2023-05-25T02:21:22;95155.06;;;14.54;93.31
7834;BME280;3962;42.696;23.354;2023-05-25T02:23:51;95160.72;;;14.59;93.49
7834;BME280;3962;42.696;23.354;2023-05-25T02:26:18;95165.91;;;14.60;93.26
7834;BME280;3962;42.696;23.354;2023-05-25T02:28:46;95164.25;;;14.59;93.02
7834;BME280;3962;42.696;23.354;2023-05-25T02:31:13;95169.09;;;14.56;93.23
7834;BME280;3962;42.696;23.354;2023-05-25T02:33:40;95167.59;;;14.53;93.47
7834;BME280;3962;42.696;23.354;2023-05-25T02:36:07;95171.78;;;14.56;93.49
7834;BME280;3962;42.696;23.354;2023-05-25T02:38:34;95175.59;;;14.61;93.54
7834;BME280;3962;42.696;23.354;2023-05-25T02:41:02;95184.50;;;14.62;92.91
7834;BME280;3962;42.696;23.354;2023-05-25T02:43:29;95192.16;;;14.65;92.35
7834;BME280;3962;42.696;23.354;2023-05-25T02:45:57;95192.16;;;14.65;92.26
7834;BME280;3962;42.696;23.354;2023-05-25T02:48:23;95190.81;;;14.69;92.81
7834;BME280;3962;42.696;23.354;2023-05-25T02:50:50;95191.50;;;14.63;92.93
7834;BME280;3962;42.696;23.354;2023-05-25T02:53:17;95198.19;;;14.59;92.97
7834;BME280;3962;42.696;23.354;2023-05-25T02:55:44;95195.34;;;14.60;92.95
7834;BME280;3962;42.696;23.354;2023-05-25T02:58:12;95196.25;;;14.53;92.86
7834;BME280;3962;42.696;23.354;2023-05-25T03:00:39;95199.75;;;14.45;93.48
7834;BME280;3962;42.696;23.354;2023-05-25T03:03:07;95197.75;;;14.47;93.89
7834;BME280;3962;42.696;23.354;2023-05-25T03:05:34;95206.44;;;14.57;94.18
7834;BME280;3962;42.696;23.354;2023-05-25T03:08:00;95206.56;;;14.64;93.83
7834;BME280;3962;42.696;23.354;2023-05-25T03:10:27;95205.03;;;14.69;93.32
7834;BME280;3962;42.696;23.354;2023-05-25T03:12:54;95201.34;;;14.70;93.43
7834;BME280;3962;42.696;23.354;2023-05-25T03:15:24;95211.06;;;14.71;93.55
7834;BME280;3962;42.696;23.354;2023-05-25T03:17:51;95196.19;;;14.69;93.53
7834;BME280;3962;42.696;23.354;2023-05-25T03:20:18;95202.03;;;14.72;93.03
7834;BME280;3962;42.696;23.354;2023-05-25T03:22:45;95202.03;;;14.72;92.51
7834;BME280;3962;42.696;23.354;2023-05-25T03:25:12;95203.69;;;14.73;92.46
7834;BME280;3962;42.696;23.354;2023-05-25T03:27:39;95204.22;;;14.69;92.24
7834;BME280;3962;42.696;23.354;2023-05-25T03:30:07;95213.88;;;14.77;92.29
7834;BME280;3962;42.696;23.354;2023-05-25T03:32:35;95214.69;;;14.78;91.63
7834;BME280;3962;42.696;23.354;2023-05-25T03:35:04;95214.88;;;14.77;91.59
7834;BME280;3962;42.696;23.354;2023-05-25T03:37:31;95208.03;;;14.74;91.39
7834;BME280;3962;42.696;23.354;2023-05-25T03:39:58;95213.03;;;14.77;91.75
7834;BME280;3962;42.696;23.354;2023-05-25T03:42:24;95210.50;;;14.83;91.80
7834;BME280;3962;42.696;23.354;2023-05-25T03:44:51;95211.44;;;14.90;91.58
7834;BME280;3962;42.696;23.354;2023-05-25T03:47:18;95207.44;;;14.94;91.75
7834;BME280;3962;42.696;23.354;2023-05-25T03:49:46;95215.25;;;15.04;91.81
7834;BME280;3962;42.696;23.354;2023-05-25T03:52:13;95215.22;;;15.12;90.68
7834;BME280;3962;42.696;23.354;2023-05-25T03:54:40;95217.69;;;15.13;89.22
7834;BME280;3962;42.696;23.354;2023-05-25T03:57:07;95224.44;;;15.09;89.37
7834;BME280;3962;42.696;23.354;2023-05-25T03:59:33;95227.47;;;15.06;89.60
7834;BME280;3962;42.696;23.354;2023-05-25T04:02:00;95223.28;;;15.04;89.55
7834;BME280;3962;42.696;23.354;2023-05-25T04:04:27;95230.16;;;15.06;89.38
7834;BME280;3962;42.696;23.354;2023-05-25T04:06:55;95232.78;;;15.14;89.15
7834;BME280;3962;42.696;23.354;2023-05-25T04:09:22;95242.25;;;15.25;88.75
7834;BME280;3962;42.696;23.354;2023-05-25T04:11:49;95238.91;;;15.31;87.89
7834;BME280;3962;42.696;23.354;2023-05-25T04:14:16;95242.88;;;15.43;87.53
7834;BME280;3962;42.696;23.354;2023-05-25T04:16:45;95247.53;;;15.41;84.70
7834;BME280;3962;42.696;23.354;2023-05-25T04:19:11;95244.69;;;15.42;83.24
7834;BME280;3962;42.696;23.354;2023-05-25T04:21:38;95247.00;;;15.45;83.03
7834;BME280;3962;42.696;23.354;2023-05-25T04:24:07;95245.00;;;15.47;83.06
7834;BME280;3962;42.696;23.354;2023-05-25T04:26:34;95249.13;;;15.58;82.13
7834;BME280;3962;42.696;23.354;2023-05-25T04:29:00;95252.16;;;15.55;81.84
7834;BME280;3962;42.696;23.354;2023-05-25T04:31:27;95248.16;;;15.51;82.14
7834;BME280;3962;42.696;23.354;2023-05-25T04:33:54;95261.53;;;15.59;82.37
7834;BME280;3962;42.696;23.354;2023-05-25T04:36:23;95263.13;;;15.68;81.90
7834;BME280;3962;42.696;23.354;2023-05-25T04:38:50;95271.13;;;15.76;81.80
7834;BME280;3962;42.696;23.354;2023-05-25T04:41:20;95270.16;;;15.91;81.45
7834;BME280;3962;42.696;23.354;2023-05-25T04:43:47;95270.56;;;16.03;80.01
7834;BME280;3962;42.696;23.354;2023-05-25T04:46:15;95267.53;;;16.06;79.45
7834;BME280;3962;42.696;23.354;2023-05-25T04:48:42;95268.09;;;16.01;79.99
7834;BME280;3962;42.696;23.354;2023-05-25T04:51:10;95268.56;;;16.05;80.45
7834;BME280;3962;42.696;23.354;2023-05-25T04:53:37;95257.44;;;16.08;80.04
7834;BME280;3962;42.696;23.354;2023-05-25T04:56:04;95250.59;;;16.05;80.50
7834;BME280;3962;42.696;23.354;2023-05-25T04:58:32;95253.66;;;16.17;80.09
7834;BME280;3962;42.696;23.354;2023-05-25T05:01:02;95252.00;;;16.16;79.54
7834;BME280;3962;42.696;23.354;2023-05-25T05:03:28;95249.25;;;16.24;79.75
7834;BME280;3962;42.696;23.354;2023-05-25T05:05:55;95254.38;;;16.33;79.55
7834;BME280;3962;42.696;23.354;2023-05-25T05:08:22;95251.97;;;16.38;79.42
7834;BME280;3962;42.696;23.354;2023-05-25T05:10:49;95251.69;;;16.33;80.30
7834;BME280;3962;42.696;23.354;2023-05-25T05:13:16;95248.78;;;16.35;81.01
7834;BME280;3962;42.696;23.354;2023-05-25T05:15:44;95239.44;;;16.31;81.47
7834;BME280;3962;42.696;23.354;2023-05-25T05:18:11;95246.44;;;16.54;80.69
7834;BME280;3962;42.696;23.354;2023-05-25T05:20:38;95253.19;;;16.79;78.96
7834;BME280;3962;42.696;23.354;2023-05-25T05:23:05;95257.03;;;16.85;78.61
7834;BME280;3962;42.696;23.354;2023-05-25T05:25:32;95262.66;;;16.90;78.43
7834;BME280;3962;42.696;23.354;2023-05-25T05:27:59;95262.66;;;16.90;78.34
7834;BME280;3962;42.696;23.354;2023-05-25T05:30:26;95266.84;;;16.92;78.41
7834;BME280;3962;42.696;23.354;2023-05-25T05:32:54;95260.66;;;16.92;78.53
7834;BME280;3962;42.696;23.354;2023-05-25T05:35:22;95271.00;;;16.95;78.28
7834;BME280;3962;42.696;23.354;2023-05-25T05:37:48;95268.78;;;16.98;78.65
7834;BME280;3962;42.696;23.354;2023-05-25T05:40:15;95274.34;;;17.11;78.30
7834;BME280;3962;42.696;23.354;2023-05-25T05:42:42;95263.88;;;17.02;78.37
7834;BME280;3962;42.696;23.354;2023-05-25T05:45:10;95274.25;;;17.05;78.70
7834;BME280;3962;42.696;23.354;2023-05-25T05:47:36;95284.25;;;17.11;78.74
7834;BME280;3962;42.696;23.354;2023-05-25T05:50:06;95285.81;;;17.20;78.54
7834;BME280;3962;42.696;23.354;2023-05-25T05:52:33;95283.19;;;17.26;78.58
7834;BME280;3962;42.696;23.354;2023-05-25T05:55:00;95281.25;;;17.49;78.29
7834;BME280;3962;42.696;23.354;2023-05-25T05:57:27;95272.59;;;17.68;77.29
7834;BME280;3962;42.696;23.354;2023-05-25T05:59:54;95279.94;;;17.60;77.16
7834;BME280;3962;42.696;23.354;2023-05-25T06:02:20;95277.97;;;17.68;77.47
7834;BME280;3962;42.696;23.354;2023-05-25T06:04:48;95273.38;;;17.83;76.71
7834;BME280;3962;42.696;23.354;2023-05-25T06:07:16;95268.94;;;17.97;75.76
7834;BME280;3962;42.696;23.354;2023-05-25T06:09:43;95272.72;;;18.02;75.85
7834;BME280;3962;42.696;23.354;2023-05-25T06:12:10;95276.13;;;18.11;75.40
7834;BME280;3962;42.696;23.354;2023-05-25T06:14:37;95272.56;;;18.52;74.88
7834;BME280;3962;42.696;23.354;2023-05-25T06:17:05;95276.66;;;18.69;73.51
7834;BME280;3962;42.696;23.354;2023-05-25T06:19:31;95274.44;;;18.79;73.21
7834;BME280;3962;42.696;23.354;2023-05-25T06:21:58;95273.41;;;18.80;71.91
7834;BME280;3962;42.696;23.354;2023-05-25T06:24:26;95275.59;;;18.97;71.61
7834;BME280;3962;42.696;23.354;2023-05-25T06:26:54;95281.03;;;19.04;71.50
7834;BME280;3962;42.696;23.354;2023-05-25T06:29:21;95284.13;;;19.01;71.44
7834;BME280;3962;42.696;23.354;2023-05-25T06:31:47;95289.63;;;18.86;71.94
7834;BME280;3962;42.696;23.354;2023-05-25T06:34:14;95288.88;;;18.99;71.94
7834;BME280;3962;42.696;23.354;2023-05-25T06:36:42;95287.44;;;19.37;70.29
7834;BME280;3962;42.696;23.354;2023-05-25T06:39:09;95285.69;;;19.57;69.44
7834;BME280;3962;42.696;23.354;2023-05-25T06:41:38;95285.75;;;19.76;69.18
7834;BME280;3962;42.696;23.354;2023-05-25T06:44:05;95287.84;;;19.87;68.65
7834;BME280;3962;42.696;23.354;2023-05-25T06:46:32;95292.25;;;20.01;68.41
7834;BME280;3962;42.696;23.354;2023-05-25T06:48:59;95291.25;;;20.09;68.17
7834;BME280;3962;42.696;23.354;2023-05-25T06:51:27;95296.31;;;20.31;67.46
7834;BME280;3962;42.696;23.354;2023-05-25T06:53:54;95287.78;;;20.47;66.77
7834;BME280;3962;42.696;23.354;2023-05-25T06:56:22;95289.03;;;20.51;66.53
7834;BME280;3962;42.696;23.354;2023-05-25T06:58:50;95301.34;;;20.86;66.17
7834;BME280;3962;42.696;23.354;2023-05-25T07:01:17;95290.34;;;21.64;63.66
7834;BME280;3962;42.696;23.354;2023-05-25T07:03:44;95296.28;;;22.85;60.88
7834;BME280;3962;42.696;23.354;2023-05-25T07:06:11;95292.59;;;23.82;57.28
7834;BME280;3962;42.696;23.354;2023-05-25T07:08:38;95298.22;;;24.46;54.71
7834;BME280;3962;42.696;23.354;2023-05-25T07:11:05;95298.34;;;24.51;54.28
7834;BME280;3962;42.696;23.354;2023-05-25T07:13:35;95288.91;;;23.77;57.57
7834;BME280;3962;42.696;23.354;2023-05-25T07:16:03;95284.44;;;23.82;57.47
7834;BME280;3962;42.696;23.354;2023-05-25T07:18:30;95292.56;;;24.48;55.28
7834;BME280;3962;42.696;23.354;2023-05-25T07:20:57;95286.22;;;24.65;54.90
7834;BME280;3962;42.696;23.354;2023-05-25T07:23:24;95289.19;;;25.28;53.35
7834;BME280;3962;42.696;23.354;2023-05-25T07:25:51;95291.38;;;24.96;53.20
7834;BME280;3962;42.696;23.354;2023-05-25T07:28:18;95289.47;;;24.97;53.60
7834;BME280;3962;42.696;23.354;2023-05-25T07:30:46;95280.06;;;24.29;55.29
7834;BME280;3962;42.696;23.354;2023-05-25T07:33:16;95278.63;;;23.97;56.54
7834;BME280;3962;42.696;23.354;2023-05-25T07:35:42;95286.44;;;23.15;59.46
7834;BME280;3962;42.696;23.354;2023-05-25T07:38:09;95282.84;;;22.97;61.12
7834;BME280;3962;42.696;23.354;2023-05-25T07:40:36;95291.78;;;22.97;60.63
7834;BME280;3962;42.696;23.354;2023-05-25T07:43:03;95284.31;;;22.37;62.12
7834;BME280;3962;42.696;23.354;2023-05-25T07:45:30;95293.03;;;21.71;65.02
7834;BME280;3962;42.696;23.354;2023-05-25T07:48:01;95275.63;;;21.41;65.65
7834;BME280;3962;42.696;23.354;2023-05-25T07:50:32;95288.09;;;21.42;65.71
7834;BME280;3962;42.696;23.354;2023-05-25T07:52:59;95286.88;;;21.38;66.18
7834;BME280;3962;42.696;23.354;2023-05-25T07:55:26;95296.94;;;21.11;67.16
7834;BME280;3962;42.696;23.354;2023-05-25T07:57:54;95299.22;;;20.95;65.38
7834;BME280;3962;42.696;23.354;2023-05-25T08:00:21;95305.06;;;20.72;64.27
7834;BME280;3962;42.696;23.354;2023-05-25T08:02:48;95318.16;;;20.49;67.92
7834;BME280;3962;42.696;23.354;2023-05-25T08:05:14;95315.91;;;19.93;71.82
7834;BME280;3962;42.696;23.354;2023-05-25T08:07:47;95318.34;;;19.68;73.70
7834;BME280;3962;42.696;23.354;2023-05-25T08:10:16;95317.34;;;19.35;73.94
7834;BME280;3962;42.696;23.354;2023-05-25T08:12:43;95322.09;;;19.06;74.34
7834;BME280;3962;42.696;23.354;2023-05-25T08:20:22;95339.91;;;18.73;76.82
7834;BME280;3962;42.696;23.354;2023-05-25T08:26:00;95343.09;;;18.35;78.32
7834;BME280;3962;42.696;23.354;2023-05-25T08:28:30;95356.78;;;18.19;79.21
7834;BME280;3962;42.696;23.354;2023-05-25T08:31:09;95357.56;;;18.13;80.06
7834;BME280;3962;42.696;23.354;2023-05-25T08:33:43;95350.09;;;17.94;82.63
7834;BME280;3962;42.696;23.354;2023-05-25T08:36:47;95348.78;;;17.54;85.25
7834;BME280;3962;42.696;23.354;2023-05-25T08:58:18;95365.25;;;16.42;92.47
7834;BME280;3962;42.696;23.354;2023-05-25T09:00:53;95357.34;;;16.18;92.76
7834;BME280;3962;42.696;23.354;2023-05-25T09:03:21;95374.31;;;16.18;92.94
7834;BME280;3962;42.696;23.354;2023-05-25T09:06:03;95359.97;;;16.03;93.40
7834;BME280;3962;42.696;23.354;2023-05-25T09:08:31;95371.78;;;16.17;94.50
7834;BME280;3962;42.696;23.354;2023-05-25T09:10:58;95368.19;;;16.24;94.37
7834;BME280;3962;42.696;23.354;2023-05-25T09:17:07;95386.97;;;16.32;94.32
7834;BME280;3962;42.696;23.354;2023-05-25T09:19:36;95382.94;;;16.51;95.36
7834;BME280;3962;42.696;23.354;2023-05-25T09:22:09;95374.94;;;16.65;95.24
7834;BME280;3962;42.696;23.354;2023-05-25T09:24:56;95368.66;;;16.73;94.75
7834;BME280;3962;42.696;23.354;2023-05-25T09:28:07;95365.72;;;16.82;95.48
7834;BME280;3962;42.696;23.354;2023-05-25T09:30:49;95375.84;;;16.95;96.75
7834;BME280;3962;42.696;23.354;2023-05-25T09:33:28;95350.31;;;16.62;96.98
7834;BME280;3962;42.696;23.354;2023-05-25T09:36:18;95343.19;;;16.69;98.11
7834;BME280;3962;42.696;23.354;2023-05-25T09:38:53;95340.97;;;16.72;98.42
7834;BME280;3962;42.696;23.354;2023-05-25T09:41:37;95372.38;;;16.72;98.30
7834;BME280;3962;42.696;23.354;2023-05-25T09:44:06;95352.34;;;16.74;98.06
7834;BME280;3962;42.696;23.354;2023-05-25T09:46:34;95366.28;;;16.92;97.91
7834;BME280;3962;42.696;23.354;2023-05-25T09:49:07;95365.69;;;16.68;98.52
7834;BME280;3962;42.696;23.354;2023-05-25T09:51:38;95362.00;;;16.83;99.06
7834;BME280;3962;42.696;23.354;2023-05-25T09:54:21;95334.34;;;16.60;98.20
7834;BME280;3962;42.696;23.354;2023-05-25T09:57:03;95367.78;;;17.24;96.76
7834;BME280;3962;42.696;23.354;2023-05-25T09:59:31;95367.34;;;17.49;96.47
7834;BME280;3962;42.696;23.354;2023-05-25T10:01:59;95354.06;;;17.33;96.54
7834;BME280;3962;42.696;23.354;2023-05-25T10:04:29;95357.69;;;17.40;96.08
7834;BME280;3962;42.696;23.354;2023-05-25T10:06:59;95360.06;;;17.79;94.53
7834;BME280;3962;42.696;23.354;2023-05-25T10:09:38;95341.97;;;18.08;92.39
7834;BME280;3962;42.696;23.354;2023-05-25T10:22:43;95311.16;;;18.80;86.14
7834;BME280;3962;42.696;23.354;2023-05-25T10:25:25;95294.06;;;19.00;87.05
7834;BME280;3962;42.696;23.354;2023-05-25T10:28:24;95331.94;;;18.86;89.52
7834;BME280;3962;42.696;23.354;2023-05-25T10:34:01;95287.94;;;18.31;87.92
7834;BME280;3962;42.696;23.354;2023-05-25T10:36:34;95303.06;;;18.32;89.14
7834;BME280;3962;42.696;23.354;2023-05-25T10:43:48;95283.88;;;18.41;87.40
7834;BME280;3962;42.696;23.354;2023-05-25T10:46:18;95299.22;;;18.68;85.79
7834;BME280;3962;42.696;23.354;2023-05-25T10:48:49;95289.97;;;18.77;86.12
7834;BME280;3962;42.696;23.354;2023-05-25T10:51:36;95290.91;;;18.63;84.48
7834;BME280;3962;42.696;23.354;2023-05-25T11:04:30;95277.72;;;19.08;78.32
7834;BME280;3962;42.696;23.354;2023-05-25T11:11:14;95284.66;;;19.58;78.28
7834;BME280;3962;42.696;23.354;2023-05-25T11:14:37;95282.13;;;19.56;77.11
7834;BME280;3962;42.696;23.354;2023-05-25T11:17:28;95283.69;;;19.78;73.26
7834;BME280;3962;42.696;23.354;2023-05-25T11:32:56;95277.84;;;19.75;71.34
7834;BME280;3962;42.696;23.354;2023-05-25T11:35:24;95282.84;;;19.78;71.99
7834;BME280;3962;42.696;23.354;2023-05-25T11:37:54;95283.06;;;19.83;73.03
7834;BME280;3962;42.696;23.354;2023-05-25T11:40:21;95285.38;;;19.92;73.87
7834;BME280;3962;42.696;23.354;2023-05-25T11:42:54;95282.88;;;19.91;73.38
7834;BME280;3962;42.696;23.354;2023-05-25T11:45:27;95277.44;;;19.78;73.10
7834;BME280;3962;42.696;23.354;2023-05-25T11:51:25;95267.03;;;19.68;72.80
7834;BME280;3962;42.696;23.354;2023-05-25T11:54:03;95272.88;;;19.78;73.24
7834;BME280;3962;42.696;23.354;2023-05-25T11:56:34;95273.19;;;20.16;73.58
7834;BME280;3962;42.696;23.354;2023-05-25T11:59:08;95268.22;;;20.13;76.79
7834;BME280;3962;42.696;23.354;2023-05-25T12:01:39;95268.63;;;20.29;74.82
7834;BME280;3962;42.696;23.354;2023-05-25T12:04:10;95262.41;;;20.29;74.91
7834;BME280;3962;42.696;23.354;2023-05-25T12:06:41;95253.06;;;20.31;74.35
7834;BME280;3962;42.696;23.354;2023-05-25T12:09:33;95258.66;;;20.30;73.41
7834;BME280;3962;42.696;23.354;2023-05-25T12:12:26;95261.81;;;20.66;72.72
7834;BME280;3962;42.696;23.354;2023-05-25T12:15:08;95258.38;;;21.22;71.31
7834;BME280;3962;42.696;23.354;2023-05-25T12:17:56;95255.97;;;21.58;68.24
7834;BME280;3962;42.696;23.354;2023-05-25T12:20:28;95252.88;;;21.55;64.70
7834;BME280;3962;42.696;23.354;2023-05-25T12:32:58;95230.97;;;22.62;63.46
7834;BME280;3962;42.696;23.354;2023-05-25T12:35:44;95219.13;;;22.26;65.33
7834;BME280;3962;42.696;23.354;2023-05-25T12:38:28;95222.38;;;22.41;64.33
7834;BME280;3962;42.696;23.354;2023-05-25T12:41:04;95218.09;;;22.27;65.20
7834;BME280;3962;42.696;23.354;2023-05-25T12:53:44;95198.69;;;22.79;57.84
7834;BME280;3962;42.696;23.354;2023-05-25T12:56:11;95188.56;;;22.68;57.25
7834;BME280;3962;42.696;23.354;2023-05-25T12:59:13;95186.91;;;22.67;56.57
7834;BME280;3962;42.696;23.354;2023-05-25T13:01:48;95177.13;;;22.84;56.62
7834;BME280;3962;42.696;23.354;2023-05-25T13:04:16;95175.63;;;22.88;57.16
7834;BME280;3962;42.696;23.354;2023-05-25T13:06:43;95168.31;;;22.88;56.97
7834;BME280;3962;42.696;23.354;2023-05-25T13:09:13;95172.13;;;23.23;56.18
7834;BME280;3962;42.696;23.354;2023-05-25T13:11:41;95180.88;;;23.25;54.01
7834;BME280;3962;42.696;23.354;2023-05-25T13:14:19;95166.81;;;23.10;54.47
7834;BME280;3962;42.696;23.354;2023-05-25T13:19:23;95154.22;;;23.81;50.90
7834;BME280;3962;42.696;23.354;2023-05-25T13:21:52;95159.97;;;23.73;49.91
7834;BME280;3962;42.696;23.354;2023-05-25T13:24:22;95166.91;;;23.57;50.80
7834;BME280;3962;42.696;23.354;2023-05-25T13:26:49;95164.78;;;23.59;52.43
7834;BME280;3962;42.696;23.354;2023-05-25T13:29:16;95154.53;;;23.73;51.30
7834;BME280;3962;42.696;23.354;2023-05-25T13:31:43;95161.19;;;23.77;50.21
7834;BME280;3962;42.696;23.354;2023-05-25T13:34:10;95152.38;;;23.63;52.25
7834;BME280;3962;42.696;23.354;2023-05-25T13:36:42;95153.94;;;23.41;49.45
7834;BME280;3962;42.696;23.354;2023-05-25T13:39:08;95158.28;;;23.60;51.01
7834;BME280;3962;42.696;23.354;2023-05-25T13:41:39;95157.16;;;23.97;49.99
7834;BME280;3962;42.696;23.354;2023-05-25T13:44:07;95156.50;;;24.25;48.68
7834;BME280;3962;42.696;23.354;2023-05-25T13:46:35;95161.66;;;24.15;48.96
7834;BME280;3962;42.696;23.354;2023-05-25T13:49:03;95158.91;;;23.92;48.93
7834;BME280;3962;42.696;23.354;2023-05-25T13:51:30;95158.00;;;24.09;49.65
7834;BME280;3962;42.696;23.354;2023-05-25T13:54:00;95165.72;;;24.24;48.90
7834;BME280;3962;42.696;23.354;2023-05-25T13:56:29;95157.19;;;24.09;48.83
7834;BME280;3962;42.696;23.354;2023-05-25T13:58:59;95154.09;;;24.05;47.84
7834;BME280;3962;42.696;23.354;2023-05-25T14:01:26;95157.88;;;24.04;48.26
7834;BME280;3962;42.696;23.354;2023-05-25T14:03:54;95161.00;;;24.42;48.65
7834;BME280;3962;42.696;23.354;2023-05-25T14:06:22;95165.66;;;24.53;47.49
7834;BME280;3962;42.696;23.354;2023-05-25T14:08:49;95157.78;;;24.11;48.45
7834;BME280;3962;42.696;23.354;2023-05-25T14:11:16;95156.25;;;24.26;48.60
7834;BME280;3962;42.696;23.354;2023-05-25T14:19:42;95152.06;;;24.53;46.14
7834;BME280;3962;42.696;23.354;2023-05-25T14:22:10;95150.88;;;24.61;45.41
7834;BME280;3962;42.696;23.354;2023-05-25T14:24:38;95144.69;;;24.42;46.15
7834;BME280;3962;42.696;23.354;2023-05-25T14:27:13;95128.25;;;24.14;47.79
7834;BME280;3962;42.696;23.354;2023-05-25T14:29:50;95128.69;;;24.23;47.30
7834;BME280;3962;42.696;23.354;2023-05-25T14:32:19;95128.28;;;24.37;45.66
7834;BME280;3962;42.696;23.354;2023-05-25T14:34:49;95130.16;;;24.37;47.02
7834;BME280;3962;42.696;23.354;2023-05-25T14:37:17;95123.53;;;24.33;47.06
7834;BME280;3962;42.696;23.354;2023-05-25T14:39:52;95133.81;;;24.42;49.69
7834;BME280;3962;42.696;23.354;2023-05-25T14:42:20;95129.63;;;24.58;48.37
7834;BME280;3962;42.696;23.354;2023-05-25T14:44:48;95124.66;;;24.66;47.03
7834;BME280;3962;42.696;23.354;2023-05-25T14:47:31;95132.69;;;24.61;46.89
7834;BME280;3962;42.696;23.354;2023-05-25T14:50:00;95120.88;;;24.67;47.82
7834;BME280;3962;42.696;23.354;2023-05-25T14:52:26;95117.84;;;24.46;46.31
7834;BME280;3962;42.696;23.354;2023-05-25T14:54:53;95123.53;;;24.44;46.73
7834;BME280;3962;42.696;23.354;2023-05-25T14:57:21;95124.94;;;24.24;46.89
7834;BME280;3962;42.696;23.354;2023-05-25T14:59:47;95120.56;;;24.11;46.92
7834;BME280;3962;42.696;23.354;2023-05-25T15:02:15;95123.81;;;23.90;47.16
7834;BME280;3962;42.696;23.354;2023-05-25T15:04:41;95122.09;;;23.78;47.11
7834;BME280;3962;42.696;23.354;2023-05-25T15:07:10;95118.78;;;23.76;47.22
7834;BME280;3962;42.696;23.354;2023-05-25T15:09:37;95109.44;;;23.72;47.24
7834;BME280;3962;42.696;23.354;2023-05-25T15:12:05;95112.69;;;23.62;47.14
7834;BME280;3962;42.696;23.354;2023-05-25T15:14:32;95110.34;;;23.66;47.80